sensor_id;sensor_type;location;lat;lon;timestamp;P1;durP1;ratioP1;P2;durP2;ratioP2
77870;SDS011;67067;46.850;7.578;2023-07-29T00:00:44;6.40;;;3.88;;
77870;SDS011;67067;46.850;7.578;2023-07-29T00:02:47;6.73;;;3.97;;
77870;SDS011;67067;46.850;7.578;2023-07-29T00:03:49;5.00;;;3.75;;
77870;SDS011;67067;46.850;7.578;2023-07-29T00:05:52;4.97;;;3.95;;
77870;SDS011;67067;46.850;7.578;2023-07-29T00:06:54;3.45;;;3.15;;
77870;SDS011;67067;46.850;7.578;2023-07-29T00:08:58;4.93;;;3.70;;
77870;SDS011;67067;46.850;7.578;2023-07-29T00:11:03;6.00;;;3.42;;
77870;SDS011;67067;46.850;7.578;2023-07-29T00:12:05;3.85;;;3.47;;
77870;SDS011;67067;46.850;7.578;2023-07-29T00:13:07;5.07;;;3.70;;
77870;SDS011;67067;46.850;7.578;2023-07-29T00:14:09;6.60;;;3.88;;
77870;SDS011;67067;46.850;7.578;2023-07-29T00:16:12;6.80;;;3.42;;
77870;SDS011;67067;46.850;7.578;2023-07-29T00:17:17;4.43;;;3.70;;
77870;SDS011;67067;46.850;7.578;2023-07-29T00:19:20;4.93;;;3.67;;
77870;SDS011;67067;46.850;7.578;2023-07-29T00:20:24;5.90;;;3.60;;
77870;SDS011;67067;46.850;7.578;2023-07-29T00:21:28;3.95;;;3.50;;
77870;SDS011;67067;46.850;7.578;2023-07-29T00:22:33;5.65;;;3.72;;
77870;SDS011;67067;46.850;7.578;2023-07-29T00:23:34;4.18;;;3.50;;
77870;SDS011;67067;46.850;7.578;2023-07-29T00:25:38;3.78;;;3.45;;
77870;SDS011;67067;46.850;7.578;2023-07-29T00:27:41;4.40;;;3.70;;
77870;SDS011;67067;46.850;7.578;2023-07-29T00:28:43;4.38;;;3.60;;
77870;SDS011;67067;46.850;7.578;2023-07-29T00:30:49;3.80;;;3.45;;
77870;SDS011;67067;46.850;7.578;2023-07-29T00:31:50;4.90;;;3.72;;
77870;SDS011;67067;46.850;7.578;2023-07-29T00:32:54;4.95;;;3.70;;
77870;SDS011;67067;46.850;7.578;2023-07-29T00:33:58;3.97;;;3.58;;
77870;SDS011;67067;46.850;7.578;2023-07-29T00:36:02;9.30;;;3.80;;
77870;SDS011;67067;46.850;7.578;2023-07-29T00:37:04;4.90;;;3.53;;
77870;SDS011;67067;46.850;7.578;2023-07-29T00:38:07;6.05;;;3.63;;
77870;SDS011;67067;46.850;7.578;2023-07-29T00:40:21;5.65;;;3.80;;
77870;SDS011;67067;46.850;7.578;2023-07-29T00:41:26;7.75;;;3.90;;
77870;SDS011;67067;46.850;7.578;2023-07-29T00:42:30;4.35;;;3.90;;
77870;SDS011;67067;46.850;7.578;2023-07-29T00:43:34;6.13;;;3.70;;
77870;SDS011;67067;46.850;7.578;2023-07-29T00:44:36;5.82;;;4.20;;
77870;SDS011;67067;46.850;7.578;2023-07-29T00:46:43;4.75;;;3.70;;
77870;SDS011;67067;46.850;7.578;2023-07-29T00:47:47;4.25;;;3.67;;
77870;SDS011;67067;46.850;7.578;2023-07-29T00:48:50;4.40;;;3.60;;
77870;SDS011;67067;46.850;7.578;2023-07-29T00:49:52;5.60;;;3.90;;
77870;SDS011;67067;46.850;7.578;2023-07-29T00:51:56;5.80;;;4.15;;
77870;SDS011;67067;46.850;7.578;2023-07-29T00:52:59;6.65;;;4.00;;
77870;SDS011;67067;46.850;7.578;2023-07-29T00:54:01;6.13;;;3.85;;
77870;SDS011;67067;46.850;7.578;2023-07-29T00:55:06;8.88;;;3.95;;
77870;SDS011;67067;46.850;7.578;2023-07-29T00:56:08;4.78;;;4.00;;
77870;SDS011;67067;46.850;7.578;2023-07-29T00:57:12;4.10;;;3.70;;
77870;SDS011;67067;46.850;7.578;2023-07-29T00:58:19;4.63;;;3.65;;
77870;SDS011;67067;46.850;7.578;2023-07-29T00:59:21;5.68;;;3.80;;
77870;SDS011;67067;46.850;7.578;2023-07-29T01:00:25;7.30;;;4.03;;
77870;SDS011;67067;46.850;7.578;2023-07-29T01:01:27;5.90;;;3.92;;
77870;SDS011;67067;46.850;7.578;2023-07-29T01:02:32;4.72;;;3.90;;
77870;SDS011;67067;46.850;7.578;2023-07-29T01:03:36;4.30;;;3.90;;
77870;SDS011;67067;46.850;7.578;2023-07-29T01:04:39;5.18;;;4.00;;
77870;SDS011;67067;46.850;7.578;2023-07-29T01:05:45;5.65;;;3.97;;
77870;SDS011;67067;46.850;7.578;2023-07-29T01:08:40;6.32;;;3.67;;
77870;SDS011;67067;46.850;7.578;2023-07-29T01:10:07;5.10;;;3.80;;
77870;SDS011;67067;46.850;7.578;2023-07-29T01:15:28;9.65;;;5.28;;
77870;SDS011;67067;46.850;7.578;2023-07-29T01:16:39;13.82;;;5.15;;
77870;SDS011;67067;46.850;7.578;2023-07-29T01:17:48;9.00;;;4.53;;
77870;SDS011;67067;46.850;7.578;2023-07-29T01:18:54;7.38;;;4.80;;
77870;SDS011;67067;46.850;7.578;2023-07-29T01:20:13;8.32;;;4.75;;
77870;SDS011;67067;46.850;7.578;2023-07-29T01:21:16;8.40;;;4.30;;
77870;SDS011;67067;46.850;7.578;2023-07-29T01:22:20;5.78;;;4.40;;
77870;SDS011;67067;46.850;7.578;2023-07-29T01:23:24;8.05;;;4.30;;
77870;SDS011;67067;46.850;7.578;2023-07-29T01:24:27;8.95;;;4.20;;
77870;SDS011;67067;46.850;7.578;2023-07-29T01:25:29;6.22;;;3.90;;
77870;SDS011;67067;46.850;7.578;2023-07-29T01:26:33;9.15;;;4.47;;
77870;SDS011;67067;46.850;7.578;2023-07-29T01:27:37;8.43;;;4.63;;
77870;SDS011;67067;46.850;7.578;2023-07-29T01:30:43;6.33;;;4.13;;
77870;SDS011;67067;46.850;7.578;2023-07-29T01:31:46;7.50;;;4.53;;
77870;SDS011;67067;46.850;7.578;2023-07-29T01:33:14;5.95;;;4.60;;
77870;SDS011;67067;46.850;7.578;2023-07-29T01:34:22;5.65;;;4.00;;
77870;SDS011;67067;46.850;7.578;2023-07-29T01:35:36;6.75;;;4.20;;
77870;SDS011;67067;46.850;7.578;2023-07-29T01:36:44;7.38;;;4.60;;
77870;SDS011;67067;46.850;7.578;2023-07-29T01:37:49;8.35;;;4.72;;
77870;SDS011;67067;46.850;7.578;2023-07-29T01:38:54;6.68;;;4.38;;
77870;SDS011;67067;46.850;7.578;2023-07-29T01:39:58;8.68;;;4.70;;
77870;SDS011;67067;46.850;7.578;2023-07-29T01:41:02;8.18;;;4.70;;
77870;SDS011;67067;46.850;7.578;2023-07-29T01:42:09;6.72;;;4.25;;
77870;SDS011;67067;46.850;7.578;2023-07-29T01:43:12;7.80;;;4.88;;
77870;SDS011;67067;46.850;7.578;2023-07-29T01:44:20;7.45;;;4.50;;
77870;SDS011;67067;46.850;7.578;2023-07-29T01:45:24;7.82;;;5.03;;
77870;SDS011;67067;46.850;7.578;2023-07-29T01:46:33;10.05;;;5.00;;
77870;SDS011;67067;46.850;7.578;2023-07-29T01:47:36;8.93;;;4.57;;
77870;SDS011;67067;46.850;7.578;2023-07-29T01:48:40;6.20;;;4.28;;
77870;SDS011;67067;46.850;7.578;2023-07-29T01:49:41;6.65;;;4.50;;
77870;SDS011;67067;46.850;7.578;2023-07-29T01:51:45;11.18;;;4.75;;
77870;SDS011;67067;46.850;7.578;2023-07-29T01:52:51;5.45;;;4.47;;
77870;SDS011;67067;46.850;7.578;2023-07-29T01:53:53;7.30;;;5.05;;
77870;SDS011;67067;46.850;7.578;2023-07-29T01:54:56;8.35;;;4.65;;
77870;SDS011;67067;46.850;7.578;2023-07-29T01:55:58;8.32;;;4.97;;
77870;SDS011;67067;46.850;7.578;2023-07-29T01:57:02;5.70;;;4.70;;
77870;SDS011;67067;46.850;7.578;2023-07-29T01:58:04;7.82;;;4.80;;
77870;SDS011;67067;46.850;7.578;2023-07-29T01:59:09;6.28;;;4.45;;
77870;SDS011;67067;46.850;7.578;2023-07-29T02:00:15;7.40;;;4.72;;
77870;SDS011;67067;46.850;7.578;2023-07-29T02:01:18;6.65;;;4.18;;
77870;SDS011;67067;46.850;7.578;2023-07-29T02:03:22;9.18;;;5.25;;
77870;SDS011;67067;46.850;7.578;2023-07-29T02:04:24;8.57;;;4.60;;
77870;SDS011;67067;46.850;7.578;2023-07-29T02:06:27;7.43;;;4.60;;
77870;SDS011;67067;46.850;7.578;2023-07-29T02:07:29;8.15;;;4.63;;
77870;SDS011;67067;46.850;7.578;2023-07-29T02:08:34;5.45;;;3.92;;
77870;SDS011;67067;46.850;7.578;2023-07-29T02:09:36;7.55;;;4.57;;
77870;SDS011;67067;46.850;7.578;2023-07-29T02:11:39;7.97;;;5.00;;
77870;SDS011;67067;46.850;7.578;2023-07-29T02:13:43;6.43;;;4.80;;
77870;SDS011;67067;46.850;7.578;2023-07-29T02:14:45;7.13;;;4.65;;
77870;SDS011;67067;46.850;7.578;2023-07-29T02:15:47;11.52;;;4.80;;
77870;SDS011;67067;46.850;7.578;2023-07-29T02:17:51;7.10;;;4.80;;
77870;SDS011;67067;46.850;7.578;2023-07-29T02:18:53;6.80;;;4.70;;
77870;SDS011;67067;46.850;7.578;2023-07-29T02:19:57;9.70;;;4.85;;
77870;SDS011;67067;46.850;7.578;2023-07-29T02:22:00;8.38;;;4.45;;
77870;SDS011;67067;46.850;7.578;2023-07-29T02:24:04;7.18;;;4.60;;
77870;SDS011;67067;46.850;7.578;2023-07-29T02:25:06;6.88;;;4.60;;
77870;SDS011;67067;46.850;7.578;2023-07-29T02:26:08;7.65;;;4.70;;
77870;SDS011;67067;46.850;7.578;2023-07-29T02:27:10;5.95;;;4.50;;
77870;SDS011;67067;46.850;7.578;2023-07-29T02:28:12;6.35;;;4.30;;
77870;SDS011;67067;46.850;7.578;2023-07-29T02:29:14;5.80;;;4.53;;
77870;SDS011;67067;46.850;7.578;2023-07-29T02:31:21;7.97;;;4.47;;
77870;SDS011;67067;46.850;7.578;2023-07-29T02:32:25;6.93;;;4.78;;
77870;SDS011;67067;46.850;7.578;2023-07-29T02:33:26;7.00;;;4.80;;
77870;SDS011;67067;46.850;7.578;2023-07-29T02:34:29;8.55;;;4.85;;
77870;SDS011;67067;46.850;7.578;2023-07-29T02:35:31;7.10;;;4.60;;
77870;SDS011;67067;46.850;7.578;2023-07-29T02:36:33;5.90;;;4.43;;
77870;SDS011;67067;46.850;7.578;2023-07-29T02:37:36;6.53;;;4.32;;
77870;SDS011;67067;46.850;7.578;2023-07-29T02:38:37;7.53;;;4.78;;
77870;SDS011;67067;46.850;7.578;2023-07-29T02:39:39;5.05;;;4.18;;
77870;SDS011;67067;46.850;7.578;2023-07-29T02:40:41;7.60;;;4.22;;
77870;SDS011;67067;46.850;7.578;2023-07-29T02:41:43;4.50;;;3.80;;
77870;SDS011;67067;46.850;7.578;2023-07-29T02:43:52;5.93;;;3.88;;
77870;SDS011;67067;46.850;7.578;2023-07-29T02:44:54;8.05;;;4.32;;
77870;SDS011;67067;46.850;7.578;2023-07-29T02:45:58;7.95;;;4.30;;
77870;SDS011;67067;46.850;7.578;2023-07-29T02:47:05;5.53;;;3.95;;
77870;SDS011;67067;46.850;7.578;2023-07-29T02:48:07;7.97;;;4.13;;
77870;SDS011;67067;46.850;7.578;2023-07-29T02:50:11;5.25;;;4.45;;
77870;SDS011;67067;46.850;7.578;2023-07-29T02:52:14;9.43;;;4.32;;
77870;SDS011;67067;46.850;7.578;2023-07-29T02:53:16;7.38;;;4.40;;
77870;SDS011;67067;46.850;7.578;2023-07-29T02:54:17;11.02;;;4.32;;
77870;SDS011;67067;46.850;7.578;2023-07-29T02:55:21;6.53;;;4.07;;
77870;SDS011;67067;46.850;7.578;2023-07-29T02:56:25;7.38;;;4.20;;
77870;SDS011;67067;46.850;7.578;2023-07-29T02:57:27;5.35;;;3.97;;
77870;SDS011;67067;46.850;7.578;2023-07-29T02:58:33;5.00;;;4.28;;
77870;SDS011;67067;46.850;7.578;2023-07-29T02:59:35;5.28;;;4.03;;
77870;SDS011;67067;46.850;7.578;2023-07-29T03:00:37;4.85;;;3.83;;
77870;SDS011;67067;46.850;7.578;2023-07-29T03:01:40;4.40;;;4.00;;
77870;SDS011;67067;46.850;7.578;2023-07-29T03:02:42;3.67;;;3.33;;
77870;SDS011;67067;46.850;7.578;2023-07-29T03:03:44;7.10;;;4.05;;
77870;SDS011;67067;46.850;7.578;2023-07-29T03:04:47;7.20;;;4.22;;
77870;SDS011;67067;46.850;7.578;2023-07-29T03:05:49;4.20;;;3.80;;
77870;SDS011;67067;46.850;7.578;2023-07-29T03:07:53;8.67;;;4.07;;
77870;SDS011;67067;46.850;7.578;2023-07-29T03:08:57;6.85;;;3.97;;
77870;SDS011;67067;46.850;7.578;2023-07-29T03:11:11;5.80;;;4.25;;
77870;SDS011;67067;46.850;7.578;2023-07-29T03:12:17;6.10;;;4.22;;
77870;SDS011;67067;46.850;7.578;2023-07-29T03:13:23;8.10;;;4.20;;
77870;SDS011;67067;46.850;7.578;2023-07-29T03:14:27;8.65;;;5.05;;
77870;SDS011;67067;46.850;7.578;2023-07-29T03:15:29;7.18;;;4.75;;
77870;SDS011;67067;46.850;7.578;2023-07-29T03:16:31;6.85;;;4.80;;
77870;SDS011;67067;46.850;7.578;2023-07-29T03:17:34;8.38;;;4.60;;
77870;SDS011;67067;46.850;7.578;2023-07-29T03:18:36;8.85;;;4.70;;
77870;SDS011;67067;46.850;7.578;2023-07-29T03:19:38;9.43;;;5.25;;
77870;SDS011;67067;46.850;7.578;2023-07-29T03:21:41;8.57;;;5.15;;
77870;SDS011;67067;46.850;7.578;2023-07-29T03:23:45;10.35;;;5.03;;
77870;SDS011;67067;46.850;7.578;2023-07-29T03:25:49;10.23;;;5.35;;
77870;SDS011;67067;46.850;7.578;2023-07-29T03:26:52;6.85;;;4.53;;
77870;SDS011;67067;46.850;7.578;2023-07-29T03:28:56;9.88;;;5.35;;
77870;SDS011;67067;46.850;7.578;2023-07-29T03:29:58;11.00;;;5.47;;
77870;SDS011;67067;46.850;7.578;2023-07-29T03:31:01;7.88;;;5.00;;
77870;SDS011;67067;46.850;7.578;2023-07-29T03:32:03;11.35;;;5.07;;
77870;SDS011;67067;46.850;7.578;2023-07-29T03:33:08;10.18;;;4.93;;
77870;SDS011;67067;46.850;7.578;2023-07-29T03:35:15;8.57;;;4.90;;
77870;SDS011;67067;46.850;7.578;2023-07-29T03:36:17;7.20;;;4.90;;
77870;SDS011;67067;46.850;7.578;2023-07-29T03:37:20;10.77;;;4.60;;
77870;SDS011;67067;46.850;7.578;2023-07-29T03:38:22;6.18;;;4.70;;
77870;SDS011;67067;46.850;7.578;2023-07-29T03:39:26;7.20;;;5.05;;
77870;SDS011;67067;46.850;7.578;2023-07-29T03:40:28;8.43;;;4.60;;
77870;SDS011;67067;46.850;7.578;2023-07-29T03:41:31;5.03;;;4.13;;
77870;SDS011;67067;46.850;7.578;2023-07-29T03:43:34;6.90;;;4.47;;
77870;SDS011;67067;46.850;7.578;2023-07-29T03:44:39;8.70;;;4.80;;
77870;SDS011;67067;46.850;7.578;2023-07-29T03:45:42;6.30;;;5.20;;
77870;SDS011;67067;46.850;7.578;2023-07-29T03:46:45;6.35;;;4.45;;
77870;SDS011;67067;46.850;7.578;2023-07-29T03:47:46;10.38;;;5.43;;
77870;SDS011;67067;46.850;7.578;2023-07-29T03:48:51;8.35;;;5.20;;
77870;SDS011;67067;46.850;7.578;2023-07-29T03:49:53;5.72;;;4.65;;
77870;SDS011;67067;46.850;7.578;2023-07-29T03:50:57;8.52;;;5.07;;
77870;SDS011;67067;46.850;7.578;2023-07-29T03:53:01;7.38;;;4.97;;
77870;SDS011;67067;46.850;7.578;2023-07-29T03:54:03;6.43;;;4.72;;
77870;SDS011;67067;46.850;7.578;2023-07-29T03:56:07;4.90;;;4.40;;
77870;SDS011;67067;46.850;7.578;2023-07-29T03:57:09;7.40;;;4.70;;
77870;SDS011;67067;46.850;7.578;2023-07-29T03:59:13;7.97;;;4.95;;
77870;SDS011;67067;46.850;7.578;2023-07-29T04:00:18;5.57;;;4.32;;
77870;SDS011;67067;46.850;7.578;2023-07-29T04:01:22;6.38;;;4.45;;
77870;SDS011;67067;46.850;7.578;2023-07-29T04:02:25;6.53;;;4.93;;
77870;SDS011;67067;46.850;7.578;2023-07-29T04:03:27;6.80;;;4.50;;
77870;SDS011;67067;46.850;7.578;2023-07-29T04:04:30;10.20;;;4.63;;
77870;SDS011;67067;46.850;7.578;2023-07-29T04:05:32;6.35;;;3.90;;
77870;SDS011;67067;46.850;7.578;2023-07-29T04:07:36;6.97;;;4.35;;
77870;SDS011;67067;46.850;7.578;2023-07-29T04:08:37;5.57;;;4.68;;
77870;SDS011;67067;46.850;7.578;2023-07-29T04:09:39;8.75;;;4.90;;
77870;SDS011;67067;46.850;7.578;2023-07-29T04:10:41;8.60;;;4.70;;
77870;SDS011;67067;46.850;7.578;2023-07-29T04:11:43;5.55;;;4.28;;
77870;SDS011;67067;46.850;7.578;2023-07-29T04:13:46;6.40;;;3.92;;
77870;SDS011;67067;46.850;7.578;2023-07-29T04:14:48;7.07;;;4.50;;
77870;SDS011;67067;46.850;7.578;2023-07-29T04:15:51;6.25;;;4.07;;
77870;SDS011;67067;46.850;7.578;2023-07-29T04:16:52;7.72;;;4.60;;
77870;SDS011;67067;46.850;7.578;2023-07-29T04:17:54;5.68;;;4.70;;
77870;SDS011;67067;46.850;7.578;2023-07-29T04:19:58;7.07;;;4.13;;
77870;SDS011;67067;46.850;7.578;2023-07-29T04:21:06;8.85;;;4.38;;
77870;SDS011;67067;46.850;7.578;2023-07-29T04:22:08;5.40;;;4.72;;
77870;SDS011;67067;46.850;7.578;2023-07-29T04:24:11;6.32;;;4.47;;
77870;SDS011;67067;46.850;7.578;2023-07-29T04:25:13;7.85;;;4.25;;
77870;SDS011;67067;46.850;7.578;2023-07-29T04:26:15;9.65;;;4.97;;
77870;SDS011;67067;46.850;7.578;2023-07-29T04:28:18;8.00;;;4.73;;
77870;SDS011;67067;46.850;7.578;2023-07-29T04:29:20;6.60;;;4.78;;
77870;SDS011;67067;46.850;7.578;2023-07-29T04:30:24;10.68;;;5.40;;
77870;SDS011;67067;46.850;7.578;2023-07-29T04:32:27;8.17;;;5.13;;
77870;SDS011;67067;46.850;7.578;2023-07-29T04:33:32;6.10;;;5.05;;
77870;SDS011;67067;46.850;7.578;2023-07-29T04:34:37;6.68;;;5.13;;
77870;SDS011;67067;46.850;7.578;2023-07-29T04:35:40;6.10;;;4.63;;
77870;SDS011;67067;46.850;7.578;2023-07-29T04:36:42;6.10;;;4.45;;
77870;SDS011;67067;46.850;7.578;2023-07-29T04:38:46;8.27;;;4.93;;
77870;SDS011;67067;46.850;7.578;2023-07-29T04:39:48;5.85;;;4.47;;
77870;SDS011;67067;46.850;7.578;2023-07-29T04:41:53;6.18;;;4.53;;
77870;SDS011;67067;46.850;7.578;2023-07-29T04:42:55;5.13;;;4.40;;
77870;SDS011;67067;46.850;7.578;2023-07-29T04:43:57;8.70;;;4.88;;
77870;SDS011;67067;46.850;7.578;2023-07-29T04:45:01;5.50;;;4.75;;
77870;SDS011;67067;46.850;7.578;2023-07-29T04:46:06;7.43;;;5.10;;
77870;SDS011;67067;46.850;7.578;2023-07-29T04:47:09;6.18;;;4.65;;
77870;SDS011;67067;46.850;7.578;2023-07-29T04:48:13;7.30;;;4.75;;
77870;SDS011;67067;46.850;7.578;2023-07-29T04:49:15;6.53;;;4.60;;
77870;SDS011;67067;46.850;7.578;2023-07-29T04:51:19;4.50;;;4.10;;
77870;SDS011;67067;46.850;7.578;2023-07-29T04:52:21;4.88;;;4.38;;
77870;SDS011;67067;46.850;7.578;2023-07-29T04:53:23;7.35;;;4.63;;
77870;SDS011;67067;46.850;7.578;2023-07-29T04:55:26;5.75;;;4.72;;
77870;SDS011;67067;46.850;7.578;2023-07-29T04:57:29;6.57;;;4.55;;
77870;SDS011;67067;46.850;7.578;2023-07-29T04:58:35;6.88;;;4.50;;
77870;SDS011;67067;46.850;7.578;2023-07-29T04:59:36;4.97;;;4.30;;
77870;SDS011;67067;46.850;7.578;2023-07-29T05:00:38;5.80;;;4.70;;
77870;SDS011;67067;46.850;7.578;2023-07-29T05:02:43;13.23;;;5.55;;
77870;SDS011;67067;46.850;7.578;2023-07-29T05:03:48;8.15;;;5.18;;
77870;SDS011;67067;46.850;7.578;2023-07-29T05:04:50;7.43;;;4.68;;
77870;SDS011;67067;46.850;7.578;2023-07-29T05:05:54;7.80;;;4.60;;
77870;SDS011;67067;46.850;7.578;2023-07-29T05:06:58;6.68;;;4.70;;
77870;SDS011;67067;46.850;7.578;2023-07-29T05:09:14;5.23;;;4.53;;
77870;SDS011;67067;46.850;7.578;2023-07-29T05:10:17;6.65;;;5.03;;
77870;SDS011;67067;46.850;7.578;2023-07-29T05:11:19;6.10;;;4.70;;
77870;SDS011;67067;46.850;7.578;2023-07-29T05:12:21;7.72;;;4.60;;
77870;SDS011;67067;46.850;7.578;2023-07-29T05:13:25;9.55;;;4.93;;
77870;SDS011;67067;46.850;7.578;2023-07-29T05:15:28;5.90;;;4.30;;
77870;SDS011;67067;46.850;7.578;2023-07-29T05:16:30;6.00;;;4.25;;
77870;SDS011;67067;46.850;7.578;2023-07-29T05:18:34;7.07;;;4.70;;
77870;SDS011;67067;46.850;7.578;2023-07-29T05:19:35;6.95;;;4.88;;
77870;SDS011;67067;46.850;7.578;2023-07-29T05:20:37;8.07;;;4.70;;
77870;SDS011;67067;46.850;7.578;2023-07-29T05:22:41;7.03;;;4.70;;
77870;SDS011;67067;46.850;7.578;2023-07-29T05:24:44;7.10;;;4.50;;
77870;SDS011;67067;46.850;7.578;2023-07-29T05:25:48;7.28;;;4.65;;
77870;SDS011;67067;46.850;7.578;2023-07-29T05:27:51;5.55;;;4.50;;
77870;SDS011;67067;46.850;7.578;2023-07-29T05:28:55;6.90;;;4.65;;
77870;SDS011;67067;46.850;7.578;2023-07-29T05:29:57;6.28;;;4.38;;
77870;SDS011;67067;46.850;7.578;2023-07-29T05:31:01;7.53;;;4.60;;
77870;SDS011;67067;46.850;7.578;2023-07-29T05:32:04;6.70;;;4.40;;
77870;SDS011;67067;46.850;7.578;2023-07-29T05:33:06;6.60;;;4.72;;
77870;SDS011;67067;46.850;7.578;2023-07-29T05:34:12;8.90;;;5.18;;
77870;SDS011;67067;46.850;7.578;2023-07-29T05:35:14;6.68;;;4.63;;
77870;SDS011;67067;46.850;7.578;2023-07-29T05:36:16;5.15;;;4.53;;
77870;SDS011;67067;46.850;7.578;2023-07-29T05:37:20;4.93;;;4.40;;
77870;SDS011;67067;46.850;7.578;2023-07-29T05:38:22;6.22;;;4.60;;
77870;SDS011;67067;46.850;7.578;2023-07-29T05:39:28;8.80;;;5.10;;
77870;SDS011;67067;46.850;7.578;2023-07-29T05:40:35;6.55;;;4.70;;
77870;SDS011;67067;46.850;7.578;2023-07-29T05:41:37;7.03;;;4.70;;
77870;SDS011;67067;46.850;7.578;2023-07-29T05:42:41;6.95;;;4.93;;
77870;SDS011;67067;46.850;7.578;2023-07-29T05:43:43;8.27;;;5.30;;
77870;SDS011;67067;46.850;7.578;2023-07-29T05:44:46;6.03;;;4.82;;
77870;SDS011;67067;46.850;7.578;2023-07-29T05:46:53;10.57;;;4.57;;
77870;SDS011;67067;46.850;7.578;2023-07-29T05:47:57;5.72;;;4.60;;
77870;SDS011;67067;46.850;7.578;2023-07-29T05:48:59;5.90;;;4.85;;
77870;SDS011;67067;46.850;7.578;2023-07-29T05:51:05;5.60;;;4.28;;
77870;SDS011;67067;46.850;7.578;2023-07-29T05:52:08;6.50;;;4.95;;
77870;SDS011;67067;46.850;7.578;2023-07-29T05:53:11;8.30;;;4.88;;
77870;SDS011;67067;46.850;7.578;2023-07-29T05:55:15;8.32;;;4.88;;
77870;SDS011;67067;46.850;7.578;2023-07-29T05:57:18;8.88;;;4.88;;
77870;SDS011;67067;46.850;7.578;2023-07-29T05:58:20;6.38;;;4.65;;
77870;SDS011;67067;46.850;7.578;2023-07-29T05:59:22;6.72;;;4.82;;
77870;SDS011;67067;46.850;7.578;2023-07-29T06:00:27;8.07;;;5.07;;
77870;SDS011;67067;46.850;7.578;2023-07-29T06:01:29;6.40;;;4.65;;
77870;SDS011;67067;46.850;7.578;2023-07-29T06:03:33;4.70;;;4.27;;
77870;SDS011;67067;46.850;7.578;2023-07-29T06:04:34;8.18;;;4.72;;
77870;SDS011;67067;46.850;7.578;2023-07-29T06:06:38;5.63;;;4.30;;
77870;SDS011;67067;46.850;7.578;2023-07-29T06:07:40;6.13;;;4.85;;
77870;SDS011;67067;46.850;7.578;2023-07-29T06:08:45;5.22;;;4.40;;
77870;SDS011;67067;46.850;7.578;2023-07-29T06:09:49;5.47;;;4.90;;
77870;SDS011;67067;46.850;7.578;2023-07-29T06:10:51;5.15;;;4.10;;
77870;SDS011;67067;46.850;7.578;2023-07-29T06:11:52;5.80;;;4.80;;
77870;SDS011;67067;46.850;7.578;2023-07-29T06:12:56;5.18;;;4.47;;
77870;SDS011;67067;46.850;7.578;2023-07-29T06:14:00;5.63;;;4.22;;
77870;SDS011;67067;46.850;7.578;2023-07-29T06:15:04;6.78;;;4.25;;
77870;SDS011;67067;46.850;7.578;2023-07-29T06:16:06;7.65;;;4.80;;
77870;SDS011;67067;46.850;7.578;2023-07-29T06:17:11;4.32;;;3.92;;
77870;SDS011;67067;46.850;7.578;2023-07-29T06:18:16;5.88;;;4.07;;
77870;SDS011;67067;46.850;7.578;2023-07-29T06:20:20;6.68;;;4.28;;
77870;SDS011;67067;46.850;7.578;2023-07-29T06:21:21;6.20;;;4.13;;
77870;SDS011;67067;46.850;7.578;2023-07-29T06:22:24;6.35;;;4.60;;
77870;SDS011;67067;46.850;7.578;2023-07-29T06:23:25;7.28;;;4.68;;
77870;SDS011;67067;46.850;7.578;2023-07-29T06:25:31;6.55;;;4.40;;
77870;SDS011;67067;46.850;7.578;2023-07-29T06:26:33;5.00;;;4.20;;
77870;SDS011;67067;46.850;7.578;2023-07-29T06:27:35;5.28;;;3.88;;
77870;SDS011;67067;46.850;7.578;2023-07-29T06:28:39;4.93;;;4.10;;
77870;SDS011;67067;46.850;7.578;2023-07-29T06:30:42;7.70;;;4.50;;
77870;SDS011;67067;46.850;7.578;2023-07-29T06:31:44;4.68;;;4.20;;
77870;SDS011;67067;46.850;7.578;2023-07-29T06:32:48;6.60;;;4.10;;
77870;SDS011;67067;46.850;7.578;2023-07-29T06:33:50;6.30;;;4.53;;
77870;SDS011;67067;46.850;7.578;2023-07-29T06:34:56;4.45;;;3.78;;
77870;SDS011;67067;46.850;7.578;2023-07-29T06:35:57;7.00;;;4.40;;
77870;SDS011;67067;46.850;7.578;2023-07-29T06:38:03;4.85;;;4.35;;
77870;SDS011;67067;46.850;7.578;2023-07-29T06:40:06;5.05;;;4.18;;
77870;SDS011;67067;46.850;7.578;2023-07-29T06:41:09;7.53;;;4.20;;
77870;SDS011;67067;46.850;7.578;2023-07-29T06:42:16;5.78;;;4.38;;
77870;SDS011;67067;46.850;7.578;2023-07-29T06:43:20;6.40;;;4.00;;
77870;SDS011;67067;46.850;7.578;2023-07-29T06:44:22;6.90;;;4.50;;
77870;SDS011;67067;46.850;7.578;2023-07-29T06:45:24;4.70;;;4.13;;
77870;SDS011;67067;46.850;7.578;2023-07-29T06:47:27;7.75;;;4.15;;
77870;SDS011;67067;46.850;7.578;2023-07-29T06:48:29;5.50;;;4.10;;
77870;SDS011;67067;46.850;7.578;2023-07-29T06:49:33;6.07;;;4.10;;
77870;SDS011;67067;46.850;7.578;2023-07-29T06:51:37;5.13;;;4.22;;
77870;SDS011;67067;46.850;7.578;2023-07-29T06:52:40;6.97;;;4.40;;
77870;SDS011;67067;46.850;7.578;2023-07-29T06:54:44;5.15;;;4.05;;
77870;SDS011;67067;46.850;7.578;2023-07-29T06:56:47;5.93;;;4.18;;
77870;SDS011;67067;46.850;7.578;2023-07-29T06:57:49;6.05;;;4.10;;
77870;SDS011;67067;46.850;7.578;2023-07-29T06:58:53;6.25;;;4.18;;
77870;SDS011;67067;46.850;7.578;2023-07-29T06:59:57;6.55;;;4.40;;
77870;SDS011;67067;46.850;7.578;2023-07-29T07:01:01;5.60;;;4.07;;
77870;SDS011;67067;46.850;7.578;2023-07-29T07:02:05;5.97;;;4.28;;
77870;SDS011;67067;46.850;7.578;2023-07-29T07:03:07;6.00;;;4.35;;
77870;SDS011;67067;46.850;7.578;2023-07-29T07:04:09;5.50;;;4.05;;
77870;SDS011;67067;46.850;7.578;2023-07-29T07:06:12;4.50;;;4.00;;
77870;SDS011;67067;46.850;7.578;2023-07-29T07:07:15;7.80;;;4.20;;
77870;SDS011;67067;46.850;7.578;2023-07-29T07:08:19;5.60;;;4.22;;
77870;SDS011;67067;46.850;7.578;2023-07-29T07:10:22;5.80;;;3.70;;
77870;SDS011;67067;46.850;7.578;2023-07-29T07:12:25;4.35;;;3.92;;
77870;SDS011;67067;46.850;7.578;2023-07-29T07:13:27;4.35;;;3.78;;
77870;SDS011;67067;46.850;7.578;2023-07-29T07:14:32;6.00;;;4.00;;
77870;SDS011;67067;46.850;7.578;2023-07-29T07:15:33;4.72;;;4.03;;
77870;SDS011;67067;46.850;7.578;2023-07-29T07:17:38;5.25;;;4.10;;
77870;SDS011;67067;46.850;7.578;2023-07-29T07:18:43;7.53;;;4.53;;
77870;SDS011;67067;46.850;7.578;2023-07-29T07:19:45;4.45;;;3.70;;
77870;SDS011;67067;46.850;7.578;2023-07-29T07:20:48;4.15;;;3.72;;
77870;SDS011;67067;46.850;7.578;2023-07-29T07:21:50;5.60;;;3.80;;
77870;SDS011;67067;46.850;7.578;2023-07-29T07:22:52;6.25;;;4.20;;
77870;SDS011;67067;46.850;7.578;2023-07-29T07:24:55;4.70;;;4.00;;
77870;SDS011;67067;46.850;7.578;2023-07-29T07:25:57;5.20;;;4.00;;
77870;SDS011;67067;46.850;7.578;2023-07-29T07:28:00;4.57;;;4.13;;
77870;SDS011;67067;46.850;7.578;2023-07-29T07:29:05;4.63;;;4.03;;
77870;SDS011;67067;46.850;7.578;2023-07-29T07:30:07;4.97;;;4.05;;
77870;SDS011;67067;46.850;7.578;2023-07-29T07:31:09;4.18;;;3.78;;
77870;SDS011;67067;46.850;7.578;2023-07-29T07:32:13;6.03;;;3.70;;
77870;SDS011;67067;46.850;7.578;2023-07-29T07:33:14;5.70;;;4.05;;
77870;SDS011;67067;46.850;7.578;2023-07-29T07:34:16;7.35;;;3.88;;
77870;SDS011;67067;46.850;7.578;2023-07-29T07:35:18;4.75;;;4.05;;
77870;SDS011;67067;46.850;7.578;2023-07-29T07:36:20;4.60;;;3.95;;
77870;SDS011;67067;46.850;7.578;2023-07-29T07:37:22;4.60;;;4.13;;
77870;SDS011;67067;46.850;7.578;2023-07-29T07:38:27;5.70;;;4.00;;
77870;SDS011;67067;46.850;7.578;2023-07-29T07:39:31;5.82;;;4.15;;
77870;SDS011;67067;46.850;7.578;2023-07-29T07:40:33;4.97;;;4.05;;
77870;SDS011;67067;46.850;7.578;2023-07-29T07:41:35;5.35;;;4.00;;
77870;SDS011;67067;46.850;7.578;2023-07-29T07:42:37;5.00;;;4.10;;
77870;SDS011;67067;46.850;7.578;2023-07-29T07:43:39;4.38;;;3.70;;
77870;SDS011;67067;46.850;7.578;2023-07-29T07:45:42;4.38;;;3.97;;
77870;SDS011;67067;46.850;7.578;2023-07-29T07:47:46;4.53;;;3.85;;
77870;SDS011;67067;46.850;7.578;2023-07-29T07:48:48;4.05;;;3.65;;